Terminal Aerodrome Forecast
Issued by NWS Twin Cities, MN

Home | Current Version | Previous Version | Graphics & Text | Print | Product List | Glossary On
Versions: 1 2 3 4 5 6 7 8 9 10 11 12 13 14 15 16 17 18 19 20 21 22 23 24 25 26
000
FTUS43 KMPX 291120
TAFMSP
TAF
KMSP 291120Z 2912/3018 18007KT 6SM -SHRA BKN020 OVC040
     FM291500 22010KT 6SM -SHRA BR VCTS OVC025CB
      TEMPO 2916/2920 5SM -TSRA
     FM292000 33015G23KT P6SM VCSH BKN025
     FM292200 35013G21KT P6SM FEW030 BKN100
     FM300800 35012KT P6SM FEW250=

USA.gov is the U.S. government's official web portal to all federal, state and local government web resources and services.